Time;durP1;ratioP1;P1;durP2;ratioP2;P2;SDS_P1;SDS_P2;PMS_P1;PMS_P2;Temp;Humidity;BMP_temperature;BMP_pressure;BME280_temperature;BME280_humidity;BME280_pressure;Samples;Min_cycle;Max_cycle;Signal;HPM_P1;HPM_P2
2022/10/03 00:02:08;;;;;;;9.43;1.88;;;;;;;;;;5054297;28;20367;-65
2022/10/03 00:04:40;;;;;;;11.25;1.60;;;;;;;;;;5069876;28;20041;-71
2022/10/03 00:07:15;;;;;;;9.35;1.80;;;;;;;;;;5043350;28;20037;-71
2022/10/03 00:09:51;;;;;;;8.10;1.75;;;;;;;;;;5051699;28;20069;-71
2022/10/03 00:12:35;;;;;;;9.68;1.92;;;;;;;;;;5051808;28;20065;-71
2022/10/03 00:15:05;;;;;;;14.93;2.25;;;;;;;;;;5066455;28;20037;-71
2022/10/03 00:17:39;;;;;;;10.02;2.42;;;;;;;;;;5053220;28;20036;-71
2022/10/03 00:20:25;;;;;;;13.13;2.40;;;;;;;;;;5052890;28;20041;-71
2022/10/03 00:22:59;;;;;;;12.90;1.70;;;;;;;;;;5041831;28;20502;-71
2022/10/03 00:25:30;;;;;;;11.32;2.40;;;;;;;;;;5039043;28;20028;-71
2022/10/03 00:28:13;;;;;;;5.78;1.50;;;;;;;;;;5052951;28;20576;-71
2022/10/03 00:30:48;;;;;;;16.55;2.75;;;;;;;;;;5039932;28;20051;-71
2022/10/03 00:33:29;;;;;;;13.02;1.98;;;;;;;;;;5052664;28;20405;-71
2022/10/03 00:35:58;;;;;;;13.65;2.83;;;;;;;;;;5055897;28;20124;-71
2022/10/03 00:38:27;;;;;;;10.73;2.08;;;;;;;;;;5052143;28;20115;-65
2022/10/03 00:41:03;;;;;;;9.90;1.73;;;;;;;;;;5050587;28;20398;-65
2022/10/03 00:43:29;;;;;;;;;;;;;;;;;;5053131;28;20037;-71
2022/10/03 00:46:14;;;;;;;12.23;1.55;;;;;;;;;;5058818;28;19916;-71
2022/10/03 00:48:58;;;;;;;9.50;1.88;;;;;;;;;;5052953;28;20091;-71
2022/10/03 00:51:42;;;;;;;15.50;2.30;;;;;;;;;;5052657;28;20094;-71
2022/10/03 00:54:21;;;;;;;9.75;1.80;;;;;;;;;;5050611;28;20127;-71
2022/10/03 00:56:53;;;;;;;17.20;2.55;;;;;;;;;;5056053;28;20037;-71
2022/10/03 00:59:27;;;;;;;7.20;1.42;;;;;;;;;;5063936;28;20068;-65
2022/10/03 01:01:54;;;;;;;9.50;1.88;;;;;;;;;;5070570;28;20032;-65
2022/10/03 01:04:29;;;;;;;11.20;1.77;;;;;;;;;;5071442;28;20522;-65
2022/10/03 01:07:11;;;;;;;8.57;1.97;;;;;;;;;;5064724;28;20121;-65
2022/10/03 01:09:43;;;;;;;10.05;2.05;;;;;;;;;;5071883;28;20311;-65
2022/10/03 01:12:12;;;;;;;16.63;2.05;;;;;;;;;;5062005;28;20140;-71
2022/10/03 01:14:56;;;;;;;13.00;2.20;;;;;;;;;;5052857;28;20398;-72
2022/10/03 01:17:22;;;;;;;11.68;1.88;;;;;;;;;;5058287;28;20043;-72
2022/10/03 01:20:02;;;;;;;8.30;1.80;;;;;;;;;;5056311;28;20076;-72
2022/10/03 01:22:43;;;;;;;14.40;1.95;;;;;;;;;;5056048;28;20045;-72
2022/10/03 01:25:24;;;;;;;11.40;1.92;;;;;;;;;;5059793;28;20032;-66
2022/10/03 01:31:01;;;;;;;9.25;2.30;;;;;;;;;;5044243;28;20048;-72
2022/10/03 01:33:36;;;;;;;8.65;1.55;;;;;;;;;;5071376;28;20053;-72
2022/10/03 01:36:12;;;;;;;11.15;2.00;;;;;;;;;;5054594;28;20496;-72
2022/10/03 01:39:00;;;;;;;9.27;1.60;;;;;;;;;;5054418;28;20071;-66
2022/10/03 01:41:36;;;;;;;9.65;1.80;;;;;;;;;;5063185;28;20037;-72
2022/10/03 01:44:11;;;;;;;12.23;1.70;;;;;;;;;;5036097;28;20541;-72
2022/10/03 01:46:43;;;;;;;9.73;2.17;;;;;;;;;;5048870;28;20121;-72
2022/10/03 01:49:09;;;;;;;11.38;2.05;;;;;;;;;;5063059;28;20064;-72
2022/10/03 01:51:51;;;;;;;9.32;1.30;;;;;;;;;;5054555;28;20047;-72
2022/10/03 01:54:28;;;;;;;9.93;1.60;;;;;;;;;;5055618;28;20044;-72
2022/10/03 01:56:54;;;;;;;9.27;1.35;;;;;;;;;;5055680;28;20059;-72
2022/10/03 01:59:36;;;;;;;12.98;1.48;;;;;;;;;;5055291;28;20037;-72
2022/10/03 02:02:08;;;;;;;11.98;1.60;;;;;;;;;;5055062;28;20497;-72
2022/10/03 02:04:53;;;;;;;8.55;1.52;;;;;;;;;;5054024;28;20033;-66
2022/10/03 02:07:39;;;;;;;11.00;1.92;;;;;;;;;;5053226;28;20040;-66
2022/10/03 02:10:06;;;;;;;;;;;;;;;;;;5060763;28;20061;-66
2022/10/03 02:12:33;;;;;;;;;;;;;;;;;;5054627;28;19924;-66
2022/10/03 02:15:18;;;;;;;12.68;1.50;;;;;;;;;;5055343;28;19917;-72
2022/10/03 02:17:57;;;;;;;10.52;1.73;;;;;;;;;;5053312;28;20041;-72
2022/10/03 02:20:44;;;;;;;11.05;2.15;;;;;;;;;;5044829;28;20103;-72
2022/10/03 02:23:22;;;;;;;9.43;2.00;;;;;;;;;;5050558;28;20486;-72
2022/10/03 02:25:58;;;;;;;9.00;1.23;;;;;;;;;;5016821;28;20045;-73
2022/10/03 02:28:34;;;;;;;9.15;1.80;;;;;;;;;;5039520;28;20036;-66
2022/10/03 02:31:12;;;;;;;11.77;1.88;;;;;;;;;;5054322;28;20037;-66
2022/10/03 02:33:56;;;;;;;9.93;1.77;;;;;;;;;;5053878;28;20037;-66
2022/10/03 02:36:32;;;;;;;14.85;2.67;;;;;;;;;;5049500;28;20537;-66
2022/10/03 02:39:10;;;;;;;6.78;1.48;;;;;;;;;;5053840;28;20220;-66
2022/10/03 02:41:37;;;;;;;11.27;2.30;;;;;;;;;;5055105;28;20041;-66
2022/10/03 02:44:15;;;;;;;5.88;1.10;;;;;;;;;;5068652;28;20037;-66
2022/10/03 02:46:45;;;;;;;6.82;1.27;;;;;;;;;;5052689;28;20124;-66
2022/10/03 02:49:11;;;;;;;16.73;2.03;;;;;;;;;;5058772;28;20047;-66
2022/10/03 02:51:37;;;;;;;11.60;2.03;;;;;;;;;;5071725;28;20091;-66
2022/10/03 02:54:15;;;;;;;8.95;1.80;;;;;;;;;;5071903;28;20086;-66
2022/10/03 02:56:55;;;;;;;6.50;1.75;;;;;;;;;;5072722;28;20048;-66
2022/10/03 02:59:25;;;;;;;6.28;1.60;;;;;;;;;;5072889;28;20116;-66
2022/10/03 03:02:09;;;;;;;7.70;1.38;;;;;;;;;;5058421;28;20044;-66
2022/10/03 03:04:51;;;;;;;9.75;1.75;;;;;;;;;;5060988;28;20040;-66
2022/10/03 03:07:37;;;;;;;13.43;1.80;;;;;;;;;;5072587;28;20055;-66
2022/10/03 03:10:14;;;;;;;11.02;1.90;;;;;;;;;;5062275;28;20052;-66
2022/10/03 03:13:05;;;;;;;7.60;1.33;;;;;;;;;;5065042;28;20033;-66
2022/10/03 03:15:50;;;;;;;5.75;1.30;;;;;;;;;;5061804;28;20056;-66
2022/10/03 03:18:35;;;;;;;8.27;2.22;;;;;;;;;;5046232;28;20481;-66
2022/10/03 03:21:13;;;;;;;6.70;1.80;;;;;;;;;;5071804;28;20083;-66
2022/10/03 03:23:49;;;;;;;6.63;1.67;;;;;;;;;;5066968;28;20036;-66
2022/10/03 03:26:30;;;;;;;12.10;2.17;;;;;;;;;;5071481;28;20040;-66
2022/10/03 03:29:15;;;;;;;13.82;2.10;;;;;;;;;;5065922;28;20110;-66
2022/10/03 03:31:49;;;;;;;7.47;1.73;;;;;;;;;;5072940;28;20045;-66
2022/10/03 03:34:20;;;;;;;9.70;2.08;;;;;;;;;;5069776;28;20044;-72
2022/10/03 03:37:01;;;;;;;8.00;1.65;;;;;;;;;;5057952;28;20106;-66
2022/10/03 03:39:37;;;;;;;10.98;1.60;;;;;;;;;;5072226;28;20048;-66
2022/10/03 03:42:11;;;;;;;7.73;1.40;;;;;;;;;;5042338;28;20505;-66
2022/10/03 03:44:53;;;;;;;7.72;1.40;;;;;;;;;;5066044;28;20373;-66
2022/10/03 03:47:42;;;;;;;7.40;1.55;;;;;;;;;;5037273;28;20043;-72
2022/10/03 03:50:26;;;;;;;10.27;1.75;;;;;;;;;;5053482;28;20520;-72
2022/10/03 03:52:52;;;;;;;8.05;1.73;;;;;;;;;;5053670;28;20045;-72
2022/10/03 03:55:39;;;;;;;10.48;1.92;;;;;;;;;;5053432;28;20040;-72
2022/10/03 03:58:12;;;;;;;10.88;2.15;;;;;;;;;;5033537;28;20049;-72
2022/10/03 04:00:47;;;;;;;7.03;1.50;;;;;;;;;;5052248;28;20094;-72
2022/10/03 04:03:13;;;;;;;8.85;1.50;;;;;;;;;;5066728;28;20130;-72
2022/10/03 04:05:39;;;;;;;10.05;1.80;;;;;;;;;;5053612;28;20040;-72
2022/10/03 04:08:12;;;;;;;12.25;1.90;;;;;;;;;;5052984;28;20115;-72
2022/10/03 04:10:57;;;;;;;9.93;1.90;;;;;;;;;;5051597;28;20417;-72
2022/10/03 04:13:38;;;;;;;5.68;1.40;;;;;;;;;;5047868;28;20045;-71
2022/10/03 04:16:16;;;;;;;9.38;1.52;;;;;;;;;;5056936;28;20040;-66
2022/10/03 04:18:57;;;;;;;4.47;1.25;;;;;;;;;;5051856;28;20094;-66
2022/10/03 04:21:42;;;;;;;7.63;1.50;;;;;;;;;;5051609;28;20037;-66
2022/10/03 04:24:32;;;;;;;7.45;1.70;;;;;;;;;;5052065;28;20044;-66
2022/10/03 04:27:17;;;;;;;7.03;1.48;;;;;;;;;;5062185;28;20490;-66
2022/10/03 04:29:56;;;;;;;8.13;1.27;;;;;;;;;;5049300;28;20052;-66
2022/10/03 04:32:34;;;;;;;8.07;1.40;;;;;;;;;;5050456;28;20489;-66
2022/10/03 04:35:18;;;;;;;5.47;1.42;;;;;;;;;;5052106;28;20040;-66
2022/10/03 04:37:44;;;;;;;6.03;1.90;;;;;;;;;;5056164;28;20040;-66
2022/10/03 04:40:23;;;;;;;4.70;1.10;;;;;;;;;;5051905;28;20478;-66
2022/10/03 04:42:49;;;;;;;8.50;2.20;;;;;;;;;;5051892;28;20037;-66
2022/10/03 04:45:34;;;;;;;10.18;1.73;;;;;;;;;;5045372;28;20413;-66
2022/10/03 04:48:27;;;;;;;4.57;1.63;;;;;;;;;;5048863;28;20037;-66
2022/10/03 04:50:56;;;;;;;6.78;1.30;;;;;;;;;;5074156;28;20068;-67
2022/10/03 04:53:28;;;;;;;8.27;1.50;;;;;;;;;;5075884;28;20050;-66
2022/10/03 04:56:14;;;;;;;6.50;1.48;;;;;;;;;;5061887;28;20128;-66
2022/10/03 04:58:49;;;;;;;4.95;1.33;;;;;;;;;;5036588;28;20098;-66
2022/10/03 05:01:20;;;;;;;3.78;1.30;;;;;;;;;;5041565;28;20043;-66
2022/10/03 05:03:58;;;;;;;10.93;1.80;;;;;;;;;;5068128;28;20502;-68
2022/10/03 05:06:30;;;;;;;6.80;1.30;;;;;;;;;;5057683;28;20029;-67
2022/10/03 05:08:58;;;;;;;4.68;0.90;;;;;;;;;;5051557;28;20090;-66
2022/10/03 05:11:35;;;;;;;5.40;1.92;;;;;;;;;;5074719;28;20063;-67
2022/10/03 05:14:10;;;;;;;6.32;1.73;;;;;;;;;;5063181;28;20040;-66
2022/10/03 05:16:36;;;;;;;4.95;1.55;;;;;;;;;;5069600;28;20485;-67
2022/10/03 05:19:08;;;;;;;6.32;1.40;;;;;;;;;;5075481;28;20119;-67
2022/10/03 05:21:55;;;;;;;7.93;1.70;;;;;;;;;;5074832;28;20072;-66
2022/10/03 05:24:38;;;;;;;8.98;1.58;;;;;;;;;;5073664;28;20040;-66
2022/10/03 05:27:19;;;;;;;8.52;1.60;;;;;;;;;;5064217;28;20087;-66
2022/10/03 05:29:51;;;;;;;9.35;1.60;;;;;;;;;;5072683;28;20393;-66
2022/10/03 05:32:38;;;;;;;11.27;1.70;;;;;;;;;;5075443;28;20098;-66
2022/10/03 05:35:27;;;;;;;4.47;1.40;;;;;;;;;;5074004;28;20477;-67
2022/10/03 05:38:05;;;;;;;3.83;1.20;;;;;;;;;;5071661;28;20090;-66
2022/10/03 05:40:33;;;;;;;5.30;1.02;;;;;;;;;;5074713;28;20041;-66
2022/10/03 05:43:05;;;;;;;8.30;1.45;;;;;;;;;;5070318;28;20043;-67
2022/10/03 05:45:48;;;;;;;7.22;1.48;;;;;;;;;;5074868;28;20032;-67
2022/10/03 05:48:14;;;;;;;4.70;1.30;;;;;;;;;;5074085;28;20155;-66
2022/10/03 05:50:59;;;;;;;10.05;1.58;;;;;;;;;;5074678;28;20401;-66
2022/10/03 05:53:42;;;;;;;5.43;1.80;;;;;;;;;;5073618;28;20059;-66
2022/10/03 05:56:08;;;;;;;4.55;1.15;;;;;;;;;;5070421;28;20040;-66
2022/10/03 05:58:40;;;;;;;3.78;1.33;;;;;;;;;;5057060;28;20040;-67
2022/10/03 06:01:15;;;;;;;15.38;2.05;;;;;;;;;;5064941;28;20494;-71
2022/10/03 06:03:41;;;;;;;11.87;1.83;;;;;;;;;;5055983;28;20124;-71
2022/10/03 06:06:16;;;;;;;3.92;0.70;;;;;;;;;;5055278;28;20808;-72
2022/10/03 06:08:55;;;;;;;16.88;2.55;;;;;;;;;;5054865;28;20047;-71
2022/10/03 06:11:39;;;;;;;4.00;1.20;;;;;;;;;;5051297;28;20210;-72
2022/10/03 06:14:24;;;;;;;8.63;1.70;;;;;;;;;;5054860;28;20045;-72
2022/10/03 06:16:50;;;;;;;5.47;0.95;;;;;;;;;;5054819;28;20041;-72
2022/10/03 06:19:35;;;;;;;3.75;0.82;;;;;;;;;;5054790;28;20047;-72
2022/10/03 06:22:20;;;;;;;4.50;1.10;;;;;;;;;;5053757;28;20041;-72
2022/10/03 06:24:55;;;;;;;2.00;0.50;;;;;;;;;;5054519;28;20414;-73
2022/10/03 06:27:40;;;;;;;3.80;0.40;;;;;;;;;;5063842;28;20045;-72
2022/10/03 06:30:24;;;;;;;1.65;0.30;;;;;;;;;;5054774;28;20049;-72
2022/10/03 06:33:00;;;;;;;2.17;0.30;;;;;;;;;;5053723;28;20048;-68
2022/10/03 06:35:35;;;;;;;6.22;0.98;;;;;;;;;;5044564;28;20064;-67
2022/10/03 06:38:10;;;;;;;8.88;1.08;;;;;;;;;;5069120;28;20059;-65
2022/10/03 06:40:38;;;;;;;3.78;0.73;;;;;;;;;;5053523;28;20048;-65
2022/10/03 06:43:07;;;;;;;3.88;0.98;;;;;;;;;;5053638;28;20044;-65
2022/10/03 06:45:45;;;;;;;4.32;0.95;;;;;;;;;;5052748;28;20037;-65
2022/10/03 06:48:26;;;;;;;3.90;1.00;;;;;;;;;;5053852;28;20041;-67
2022/10/03 06:51:11;;;;;;;7.10;1.05;;;;;;;;;;5072217;28;20039;-68
2022/10/03 06:53:50;;;;;;;10.90;1.10;;;;;;;;;;5053406;28;20155;-68
2022/10/03 06:56:37;;;;;;;6.32;1.38;;;;;;;;;;5048714;28;20044;-68
2022/10/03 06:59:04;;;;;;;10.25;1.23;;;;;;;;;;5061503;28;20048;-68
2022/10/03 07:01:33;;;;;;;7.15;1.50;;;;;;;;;;5073022;28;20033;-68
2022/10/03 07:04:05;;;;;;;8.60;1.60;;;;;;;;;;5052335;28;20033;-67
2022/10/03 07:06:36;;;;;;;9.25;1.73;;;;;;;;;;5053253;28;20037;-67
2022/10/03 07:09:08;;;;;;;10.10;1.77;;;;;;;;;;5053265;28;20120;-67
2022/10/03 07:11:54;;;;;;;6.68;1.38;;;;;;;;;;5051890;28;20044;-68
2022/10/03 07:14:20;;;;;;;;;;;;;;;;;;5051200;28;20047;-67
2022/10/03 07:17:07;;;;;;;9.43;1.35;;;;;;;;;;5052317;28;19921;-67
2022/10/03 07:19:51;;;;;;;8.52;1.50;;;;;;;;;;5039737;28;20044;-67
2022/10/03 07:22:37;;;;;;;10.73;1.40;;;;;;;;;;5052894;28;20037;-67
2022/10/03 07:25:21;;;;;;;8.13;1.40;;;;;;;;;;5051494;28;20089;-67
2022/10/03 07:27:51;;;;;;;7.07;1.23;;;;;;;;;;5058029;28;20045;-68
2022/10/03 07:30:21;;;;;;;9.10;1.55;;;;;;;;;;5052908;28;20045;-68
2022/10/03 07:32:50;;;;;;;8.48;1.48;;;;;;;;;;5051712;28;20041;-67
2022/10/03 07:38:56;;;;;;;8.07;1.50;;;;;;;;;;5039770;28;20037;-67
2022/10/03 07:41:05;;;;;;;8.88;1.40;;;;;;;;;;5051270;28;20087;-67
2022/10/03 07:43:40;;;;;;;8.52;1.58;;;;;;;;;;5049990;28;20073;-67
2022/10/03 07:46:25;;;;;;;6.15;1.35;;;;;;;;;;5052301;28;20044;-67
2022/10/03 07:49:11;;;;;;;5.55;1.20;;;;;;;;;;5051292;28;20046;-67
2022/10/03 07:51:57;;;;;;;7.57;1.50;;;;;;;;;;5066039;28;20050;-67
2022/10/03 07:54:29;;;;;;;8.48;1.95;;;;;;;;;;5066359;28;20040;-67
2022/10/03 07:57:11;;;;;;;10.93;1.38;;;;;;;;;;5059614;28;20037;-68
2022/10/03 07:59:56;;;;;;;9.02;1.52;;;;;;;;;;5047425;28;20043;-79
2022/10/03 08:02:50;;;;;;;8.38;1.55;;;;;;;;;;5056557;28;20577;-80
2022/10/03 08:05:24;;;;;;;7.63;1.10;;;;;;;;;;5051304;28;20045;-77
2022/10/03 08:07:50;;;;;;;10.60;1.13;;;;;;;;;;5050560;28;20036;-74
2022/10/03 08:10:35;;;;;;;10.70;1.60;;;;;;;;;;5050947;28;20086;-73
2022/10/03 08:13:02;;;;;;;8.65;1.67;;;;;;;;;;5064302;28;20103;-76
2022/10/03 08:15:48;;;;;;;11.48;1.60;;;;;;;;;;5052046;28;20055;-77
2022/10/03 08:18:14;;;;;;;;;;;;;;;;;;5047864;28;20106;-77
2022/10/03 08:20:40;;;;;;;14.38;1.75;;;;;;;;;;5052191;28;19925;-77
2022/10/03 08:23:24;;;;;;;5.63;1.20;;;;;;;;;;5051620;28;20095;-76
2022/10/03 08:26:11;;;;;;;9.77;1.70;;;;;;;;;;5051535;28;20041;-75
2022/10/03 08:28:37;;;;;;;;;;;;;;;;;;5028984;28;20059;-75
2022/10/03 08:31:03;;;;;;;5.70;1.10;;;;;;;;;;5051813;28;20240;-75
2022/10/03 08:33:44;;;;;;;11.57;1.23;;;;;;;;;;5052051;28;20041;-75
2022/10/03 08:36:16;;;;;;;6.50;1.25;;;;;;;;;;5052317;28;20033;-68
2022/10/03 08:38:58;;;;;;;6.60;1.40;;;;;;;;;;5050646;28;20033;-68
2022/10/03 08:41:27;;;;;;;9.50;1.40;;;;;;;;;;5050944;28;20036;-69
2022/10/03 08:44:12;;;;;;;5.68;1.10;;;;;;;;;;5049011;28;20047;-69
2022/10/03 08:46:41;;;;;;;8.77;1.40;;;;;;;;;;5063202;28;20048;-68
2022/10/03 08:49:25;;;;;;;7.20;1.20;;;;;;;;;;5049858;28;20168;-68
2022/10/03 08:51:55;;;;;;;5.70;1.23;;;;;;;;;;5032921;28;20037;-75
2022/10/03 08:54:24;;;;;;;9.32;1.35;;;;;;;;;;5051180;28;20036;-74
2022/10/03 08:57:08;;;;;;;7.45;1.23;;;;;;;;;;5050501;28;20048;-75
2022/10/03 08:59:36;;;;;;;7.40;1.25;;;;;;;;;;5039810;28;20135;-75
2022/10/03 09:02:13;;;;;;;7.70;1.20;;;;;;;;;;5066317;28;20041;-78
2022/10/03 09:04:45;;;;;;;7.60;1.25;;;;;;;;;;5042181;28;20043;-78
2022/10/03 09:07:21;;;;;;;4.35;1.10;;;;;;;;;;5050524;28;20111;-78
2022/10/03 09:09:47;;;;;;;7.97;1.42;;;;;;;;;;5052081;28;20075;-78
2022/10/03 09:12:32;;;;;;;5.57;1.25;;;;;;;;;;5050397;28;20044;-70
2022/10/03 09:14:58;;;;;;;6.20;1.30;;;;;;;;;;5039417;28;20049;-70
2022/10/03 09:17:30;;;;;;;7.53;1.10;;;;;;;;;;5051804;28;20044;-69
2022/10/03 09:19:56;;;;;;;5.43;1.23;;;;;;;;;;5055009;28;20040;-69
2022/10/03 09:22:52;;;;;;;6.55;1.33;;;;;;;;;;5052110;28;20593;-68
2022/10/03 09:25:24;;;;;;;4.57;1.00;;;;;;;;;;5010646;28;20050;-68
2022/10/03 09:28:02;;;;;;;6.85;1.30;;;;;;;;;;5050177;28;20041;-68
2022/10/03 09:30:43;;;;;;;6.90;1.35;;;;;;;;;;5049531;28;20090;-76
2022/10/03 09:33:21;;;;;;;5.38;1.02;;;;;;;;;;5042783;28;20431;-77
2022/10/03 09:35:57;;;;;;;5.40;1.02;;;;;;;;;;5050990;28;20045;-78
2022/10/03 09:38:26;;;;;;;4.90;1.20;;;;;;;;;;5055846;28;20083;-78
2022/10/03 09:41:11;;;;;;;12.32;1.20;;;;;;;;;;5054520;28;20049;-76
2022/10/03 09:43:47;;;;;;;4.75;1.00;;;;;;;;;;5043329;28;20044;-77
2022/10/03 09:46:20;;;;;;;5.30;1.17;;;;;;;;;;5058951;28;20033;-74
2022/10/03 09:48:49;;;;;;;5.68;1.15;;;;;;;;;;5055805;28;20130;-70
2022/10/03 09:51:24;;;;;;;8.60;1.25;;;;;;;;;;5073304;28;20048;-73
2022/10/03 09:54:09;;;;;;;6.38;1.30;;;;;;;;;;5073645;28;20039;-72
2022/10/03 09:57:01;;;;;;;5.22;1.40;;;;;;;;;;5064989;28;20048;-70
2022/10/03 09:59:36;;;;;;;6.00;1.40;;;;;;;;;;5056192;28;20051;-68
2022/10/03 10:02:21;;;;;;;7.65;1.50;;;;;;;;;;5074655;28;20505;-69
2022/10/03 10:05:14;;;;;;;5.88;1.30;;;;;;;;;;5050109;28;20052;-73
2022/10/03 10:07:47;;;;;;;5.30;1.00;;;;;;;;;;5067461;28;20078;-71
2022/10/03 10:10:31;;;;;;;6.78;1.27;;;;;;;;;;5072942;28;20052;-75
2022/10/03 10:13:11;;;;;;;6.05;1.42;;;;;;;;;;5067875;28;20071;-75
2022/10/03 10:15:56;;;;;;;5.32;1.08;;;;;;;;;;5053506;28;20132;-76
2022/10/03 10:18:49;;;;;;;7.07;1.30;;;;;;;;;;5042715;28;20036;-75
2022/10/03 10:21:21;;;;;;;4.30;1.10;;;;;;;;;;5052117;28;20110;-75
2022/10/03 10:23:59;;;;;;;5.05;1.42;;;;;;;;;;5063250;28;20052;-75
2022/10/03 10:26:35;;;;;;;6.28;1.15;;;;;;;;;;5056351;28;20119;-75
2022/10/03 10:29:10;;;;;;;5.80;1.40;;;;;;;;;;5054134;28;20041;-70
2022/10/03 10:31:55;;;;;;;5.28;1.05;;;;;;;;;;5067323;28;20063;-75
2022/10/03 10:34:39;;;;;;;5.30;1.00;;;;;;;;;;5052753;28;20029;-76
2022/10/03 10:37:32;;;;;;;5.97;1.17;;;;;;;;;;5049552;28;20045;-73
2022/10/03 10:40:07;;;;;;;5.15;1.20;;;;;;;;;;5072706;28;20394;-68
2022/10/03 10:42:35;;;;;;;;;;;;;;;;;;5068237;28;20036;-68
2022/10/03 10:45:19;;;;;;;5.30;0.90;;;;;;;;;;5067454;28;19970;-69
2022/10/03 10:48:04;;;;;;;6.22;1.10;;;;;;;;;;5056191;28;20037;-69
2022/10/03 10:50:45;;;;;;;4.07;1.00;;;;;;;;;;5066273;28;20097;-71
2022/10/03 10:53:31;;;;;;;3.65;1.15;;;;;;;;;;5063954;28;20321;-71
2022/10/03 10:56:16;;;;;;;6.18;1.13;;;;;;;;;;5066802;28;20071;-74
2022/10/03 10:59:05;;;;;;;5.05;1.10;;;;;;;;;;5053630;28;20052;-76
2022/10/03 11:01:37;;;;;;;3.78;1.00;;;;;;;;;;5048665;28;20039;-76
2022/10/03 11:04:24;;;;;;;3.70;1.30;;;;;;;;;;5067792;28;20040;-75
2022/10/03 11:07:10;;;;;;;6.13;1.08;;;;;;;;;;5067913;28;20496;-76
2022/10/03 11:09:39;;;;;;;4.28;1.10;;;;;;;;;;5063254;28;20095;-75
2022/10/03 11:12:14;;;;;;;6.25;1.27;;;;;;;;;;5058838;28;20070;-75
2022/10/03 11:15:09;;;;;;;5.00;1.30;;;;;;;;;;5065949;28;20409;-75
2022/10/03 11:17:44;;;;;;;5.78;1.00;;;;;;;;;;5059712;28;20044;-75
2022/10/03 11:20:28;;;;;;;7.50;1.20;;;;;;;;;;5062417;28;20478;-75
2022/10/03 11:23:13;;;;;;;5.57;0.90;;;;;;;;;;5063056;28;20040;-75
2022/10/03 11:25:52;;;;;;;6.70;1.17;;;;;;;;;;5051659;28;20036;-75
2022/10/03 11:28:28;;;;;;;3.45;1.00;;;;;;;;;;5051263;28;20130;-74
2022/10/03 11:30:53;;;;;;;;;;;;;;;;;;5052372;28;20398;-75
2022/10/03 11:33:23;;;;;;;6.65;0.90;;;;;;;;;;5046339;28;19917;-78
2022/10/03 11:36:10;;;;;;;5.80;1.35;;;;;;;;;;5047314;28;20044;-77
2022/10/03 11:38:42;;;;;;;5.70;0.95;;;;;;;;;;5042021;28;20072;-77
2022/10/03 11:41:11;;;;;;;6.30;1.00;;;;;;;;;;5052556;28;20040;-79
2022/10/03 11:43:40;;;;;;;5.38;1.17;;;;;;;;;;5053457;28;20033;-80
2022/10/03 11:46:16;;;;;;;8.27;1.10;;;;;;;;;;5052874;28;20567;-79
2022/10/03 11:48:45;;;;;;;6.20;1.10;;;;;;;;;;5054110;28;20040;-79
2022/10/03 11:51:14;;;;;;;5.68;1.10;;;;;;;;;;5072807;28;20039;-78
2022/10/03 11:53:40;;;;;;;4.85;1.00;;;;;;;;;;5071490;28;20044;-68
2022/10/03 11:56:15;;;;;;;4.18;1.10;;;;;;;;;;5062607;28;20045;-72
2022/10/03 11:59:00;;;;;;;5.95;1.10;;;;;;;;;;5035451;28;20486;-70
2022/10/03 12:01:46;;;;;;;7.67;1.00;;;;;;;;;;5047193;28;20142;-70
2022/10/03 12:04:12;;;;;;;;;;;;;;;;;;5070380;28;20115;-71
2022/10/03 12:10:01;;;;;;;5.30;0.88;;;;;;;;;;5048066;28;20044;-70
2022/10/03 12:12:43;;;;;;;7.30;1.15;;;;;;;;;;5050010;28;20103;-71
2022/10/03 12:15:21;;;;;;;5.38;1.10;;;;;;;;;;5041368;28;20091;-70
2022/10/03 12:17:56;;;;;;;5.38;1.45;;;;;;;;;;5052237;28;20045;-70
2022/10/03 12:20:32;;;;;;;6.80;1.20;;;;;;;;;;5040399;28;20134;-69
2022/10/03 12:23:03;;;;;;;6.45;1.27;;;;;;;;;;5051786;28;20068;-70
2022/10/03 12:25:35;;;;;;;6.78;1.10;;;;;;;;;;5049933;28;20115;-71
2022/10/03 12:28:17;;;;;;;8.45;1.02;;;;;;;;;;5050784;28;20045;-71
2022/10/03 12:31:00;;;;;;;8.35;1.08;;;;;;;;;;5050739;28;20048;-70
2022/10/03 12:33:35;;;;;;;3.92;1.00;;;;;;;;;;5050443;28;20053;-69
2022/10/03 12:36:20;;;;;;;5.82;1.20;;;;;;;;;;5051600;28;20037;-70
2022/10/03 12:38:55;;;;;;;6.72;1.10;;;;;;;;;;5066177;28;20045;-70
2022/10/03 12:41:21;;;;;;;;;;;;;;;;;;5051909;28;20037;-70
2022/10/03 12:43:55;;;;;;;4.65;1.05;;;;;;;;;;5051770;28;20000;-69
2022/10/03 12:46:29;;;;;;;7.32;1.10;;;;;;;;;;5067048;28;20044;-68
2022/10/03 12:49:14;;;;;;;6.72;0.90;;;;;;;;;;5067106;28;20044;-69
2022/10/03 12:51:50;;;;;;;4.28;0.85;;;;;;;;;;5069501;28;20501;-69
2022/10/03 12:54:24;;;;;;;4.55;1.00;;;;;;;;;;5066406;28;20079;-67
2022/10/03 12:57:09;;;;;;;4.63;1.02;;;;;;;;;;5064211;28;20458;-66
2022/10/03 12:59:41;;;;;;;6.95;1.13;;;;;;;;;;5042482;28;20102;-70
2022/10/03 13:02:26;;;;;;;5.10;1.20;;;;;;;;;;5051885;28;20045;-70
2022/10/03 13:04:58;;;;;;;4.93;1.13;;;;;;;;;;5058257;28;20576;-67
2022/10/03 13:07:25;;;;;;;4.75;1.10;;;;;;;;;;5064625;28;20116;-67
2022/10/03 13:10:03;;;;;;;3.83;1.00;;;;;;;;;;5065800;28;20076;-67
2022/10/03 13:12:33;;;;;;;5.90;0.90;;;;;;;;;;5054629;28;20091;-68
2022/10/03 13:15:18;;;;;;;3.67;0.85;;;;;;;;;;5055818;28;20041;-70
2022/10/03 13:18:04;;;;;;;4.35;1.00;;;;;;;;;;5054378;28;20049;-72
2022/10/03 13:20:38;;;;;;;8.43;1.13;;;;;;;;;;5032602;28;20056;-73
2022/10/03 13:23:13;;;;;;;6.65;1.05;;;;;;;;;;5054650;28;20052;-74
2022/10/03 13:25:44;;;;;;;5.45;0.95;;;;;;;;;;5054206;28;20037;-74
2022/10/03 13:28:17;;;;;;;5.07;0.93;;;;;;;;;;5054241;28;20037;-73
2022/10/03 13:30:46;;;;;;;6.40;1.10;;;;;;;;;;5053973;28;20087;-75
2022/10/03 13:33:21;;;;;;;4.50;0.98;;;;;;;;;;5054024;28;20044;-72
2022/10/03 13:36:01;;;;;;;6.65;1.70;;;;;;;;;;5046534;28;20094;-73
2022/10/03 13:38:41;;;;;;;7.13;1.20;;;;;;;;;;5053780;28;20048;-73
2022/10/03 13:41:16;;;;;;;4.93;1.00;;;;;;;;;;5055940;28;20079;-71
2022/10/03 13:43:49;;;;;;;5.68;0.95;;;;;;;;;;5067859;28;21109;-73
2022/10/03 13:46:24;;;;;;;3.25;0.95;;;;;;;;;;5055839;28;20535;-72
2022/10/03 13:48:57;;;;;;;4.18;0.77;;;;;;;;;;5050517;28;20547;-73
2022/10/03 13:51:27;;;;;;;3.83;0.80;;;;;;;;;;5056063;28;20040;-73
2022/10/03 13:54:20;;;;;;;5.00;1.02;;;;;;;;;;5066796;28;20062;-83
2022/10/03 13:56:46;;;;;;;6.38;1.42;;;;;;;;;;5059092;28;20139;-72
2022/10/03 13:59:18;;;;;;;6.75;1.08;;;;;;;;;;5071427;28;20119;-73
2022/10/03 14:02:02;;;;;;;5.88;0.90;;;;;;;;;;5073196;28;20043;-69
2022/10/03 14:04:32;;;;;;;5.28;0.80;;;;;;;;;;5060295;28;20039;-68
2022/10/03 14:07:09;;;;;;;18.17;1.65;;;;;;;;;;5073391;28;20075;-69
2022/10/03 14:09:38;;;;;;;8.15;1.17;;;;;;;;;;5067503;28;20043;-69
2022/10/03 14:12:22;;;;;;;7.45;1.10;;;;;;;;;;5074448;28;20127;-68
2022/10/03 14:14:57;;;;;;;7.05;1.73;;;;;;;;;;5053305;28;20083;-68
2022/10/03 14:17:44;;;;;;;8.95;1.10;;;;;;;;;;5051059;28;20041;-69
2022/10/03 14:20:14;;;;;;;4.68;0.90;;;;;;;;;;5052788;28;20048;-69
2022/10/03 14:22:49;;;;;;;4.97;0.90;;;;;;;;;;5062091;28;20107;-69
2022/10/03 14:25:24;;;;;;;5.32;1.00;;;;;;;;;;5078779;28;20065;-69
2022/10/03 14:27:50;;;;;;;;;;;;;;;;;;5070463;28;20039;-69
2022/10/03 14:30:24;;;;;;;5.38;1.20;;;;;;;;;;5073380;28;20026;-68
2022/10/03 14:33:09;;;;;;;10.98;1.00;;;;;;;;;;5058435;28;20045;-68
2022/10/03 14:35:37;;;;;;;23.48;2.45;;;;;;;;;;5060627;28;20040;-69
2022/10/03 14:38:17;;;;;;;7.65;1.15;;;;;;;;;;5052502;28;20097;-70
2022/10/03 14:40:48;;;;;;;3.90;0.88;;;;;;;;;;5049768;28;20041;-71
2022/10/03 14:43:23;;;;;;;5.70;0.90;;;;;;;;;;5059873;28;20048;-70
2022/10/03 14:45:52;;;;;;;5.28;1.38;;;;;;;;;;5047923;28;20040;-69
2022/10/03 14:48:24;;;;;;;4.88;1.20;;;;;;;;;;5052833;28;20490;-71
2022/10/03 14:50:53;;;;;;;4.20;1.00;;;;;;;;;;5069089;28;20048;-70
2022/10/03 14:53:28;;;;;;;11.05;1.20;;;;;;;;;;5056796;28;20418;-70
2022/10/03 14:55:54;;;;;;;7.20;1.17;;;;;;;;;;5060170;28;20394;-70
2022/10/03 14:58:22;;;;;;;11.02;1.10;;;;;;;;;;5062378;28;20129;-69
2022/10/03 15:00:52;;;;;;;6.95;1.02;;;;;;;;;;5068638;28;20036;-66
2022/10/03 15:03:20;;;;;;;6.38;1.10;;;;;;;;;;5058272;28;20079;-66
2022/10/03 15:05:52;;;;;;;6.93;0.90;;;;;;;;;;5060555;28;20041;-66
2022/10/03 15:08:19;;;;;;;4.75;0.90;;;;;;;;;;5060791;28;20032;-66
2022/10/03 15:10:46;;;;;;;5.85;1.00;;;;;;;;;;5067213;28;20132;-66
2022/10/03 15:13:13;;;;;;;5.45;1.25;;;;;;;;;;5063002;28;20128;-66
2022/10/03 15:15:40;;;;;;;7.45;1.10;;;;;;;;;;5061447;28;20405;-66
2022/10/03 15:18:12;;;;;;;6.03;1.05;;;;;;;;;;5065300;28;20030;-66
2022/10/03 15:20:41;;;;;;;6.25;0.90;;;;;;;;;;5059950;28;20048;-67
2022/10/03 15:23:19;;;;;;;4.53;0.98;;;;;;;;;;5052161;28;20036;-66
2022/10/03 15:25:51;;;;;;;5.68;1.10;;;;;;;;;;5066978;28;20041;-66
2022/10/03 15:28:17;;;;;;;4.70;1.00;;;;;;;;;;5051413;28;20033;-66
2022/10/03 15:30:45;;;;;;;4.30;0.98;;;;;;;;;;5046778;28;20048;-67
2022/10/03 15:33:14;;;;;;;5.00;1.05;;;;;;;;;;5045983;28;20059;-66
2022/10/03 15:35:42;;;;;;;7.45;1.02;;;;;;;;;;5045648;28;20037;-66
2022/10/03 15:38:13;;;;;;;5.18;1.00;;;;;;;;;;5047560;28;20469;-66
2022/10/03 15:40:40;;;;;;;4.22;1.15;;;;;;;;;;5048047;28;20032;-66
2022/10/03 15:43:16;;;;;;;5.13;0.90;;;;;;;;;;5051674;28;20119;-66
2022/10/03 15:45:42;;;;;;;4.22;1.10;;;;;;;;;;5048464;28;20102;-66
2022/10/03 15:48:15;;;;;;;5.90;1.10;;;;;;;;;;5051840;28;20037;-66